Time;durP1;ratioP1;P1;durP2;ratioP2;P2;SDS_P1;SDS_P2;PMS_P1;PMS_P2;Temp;Humidity;BMP_temperature;BMP_pressure;BME280_temperature;BME280_humidity;BME280_pressure;Samples;Min_cycle;Max_cycle;Signal;HPM_P1;HPM_P2
2023/06/13 00:00:31;;;;;;;6.60;6.00;;;;;;;;;;5075849;28;20773;-62
2023/06/13 00:03:00;;;;;;;7.37;6.67;;;;;;;;;;5075497;28;20451;-62
2023/06/13 00:05:27;;;;;;;9.07;6.47;;;;;;;;;;5075461;28;20449;-63
2023/06/13 00:07:56;;;;;;;10.13;6.33;;;;;;;;;;5075484;28;20828;-62
2023/06/13 00:10:23;;;;;;;8.17;5.57;;;;;;;;;;5075440;28;20449;-62
2023/06/13 00:12:51;;;;;;;6.53;5.83;;;;;;;;;;5075128;28;20467;-62
2023/06/13 00:15:18;;;;;;;6.90;5.63;;;;;;;;;;5075449;28;20446;-62
2023/06/13 00:17:47;;;;;;;6.00;5.40;;;;;;;;;;5075960;28;20457;-63
2023/06/13 00:20:15;;;;;;;6.53;5.93;;;;;;;;;;5075543;28;20486;-62
2023/06/13 00:22:45;;;;;;;7.13;5.87;;;;;;;;;;5075481;28;20450;-62
2023/06/13 00:25:13;;;;;;;6.63;5.70;;;;;;;;;;5075111;28;20447;-62
2023/06/13 00:27:40;;;;;;;6.90;5.63;;;;;;;;;;5074080;28;20477;-62
2023/06/13 00:30:08;;;;;;;6.47;5.87;;;;;;;;;;5075036;28;20475;-62
2023/06/13 00:32:35;;;;;;;6.23;5.63;;;;;;;;;;5075093;28;20443;-62
2023/06/13 00:35:03;;;;;;;6.83;6.00;;;;;;;;;;5074896;28;20447;-62
2023/06/13 00:37:34;;;;;;;6.40;5.80;;;;;;;;;;5074644;28;20500;-63
2023/06/13 00:40:02;;;;;;;6.70;6.10;;;;;;;;;;5075245;28;20771;-62
2023/06/13 00:42:32;;;;;;;7.63;5.87;;;;;;;;;;5075041;28;20525;-62
2023/06/13 00:45:18;;;;;;;5.53;5.13;;;;;;;;;;5074450;28;20559;-62
2023/06/13 00:47:46;;;;;;;7.67;6.87;;;;;;;;;;5075105;28;20489;-62
2023/06/13 00:50:14;;;;;;;8.23;5.93;;;;;;;;;;5074643;28;20447;-62
2023/06/13 00:52:42;;;;;;;7.00;6.30;;;;;;;;;;5074810;28;20546;-63
2023/06/13 00:55:09;;;;;;;7.43;6.53;;;;;;;;;;5074666;28;20472;-62
2023/06/13 00:57:39;;;;;;;8.90;6.57;;;;;;;;;;5074537;28;20830;-63
2023/06/13 01:00:07;;;;;;;7.23;6.27;;;;;;;;;;5074330;28;20446;-62
2023/06/13 01:02:34;;;;;;;11.53;6.83;;;;;;;;;;5074053;28;20446;-62
2023/06/13 01:05:02;;;;;;;6.47;5.87;;;;;;;;;;5073977;28;20442;-62
2023/06/13 01:07:32;;;;;;;8.10;6.13;;;;;;;;;;5074193;28;20468;-62
2023/06/13 01:09:59;;;;;;;7.57;6.67;;;;;;;;;;5074158;28;21018;-62
2023/06/13 01:12:29;;;;;;;6.77;6.17;;;;;;;;;;5074225;28;20479;-62
2023/06/13 01:15:02;;;;;;;8.17;6.57;;;;;;;;;;5073761;28;20965;-63
2023/06/13 01:17:33;;;;;;;7.03;6.43;;;;;;;;;;5074225;28;20431;-62
2023/06/13 01:20:04;;;;;;;7.70;7.00;;;;;;;;;;5074073;28;20459;-63
2023/06/13 01:22:37;;;;;;;7.77;7.07;;;;;;;;;;5074506;28;20429;-62
2023/06/13 01:25:08;;;;;;;10.90;6.70;;;;;;;;;;5074529;28;20427;-62
2023/06/13 01:27:37;;;;;;;7.20;6.50;;;;;;;;;;5073637;28;20505;-62
2023/06/13 01:30:05;;;;;;;9.00;6.73;;;;;;;;;;5073483;28;20512;-62
2023/06/13 01:32:33;;;;;;;7.70;7.00;;;;;;;;;;5073908;28;20433;-62
2023/06/13 01:35:02;;;;;;;10.57;7.40;;;;;;;;;;5074067;28;20449;-62
2023/06/13 01:37:29;;;;;;;8.43;6.37;;;;;;;;;;5073833;28;20453;-62
2023/06/13 01:39:56;;;;;;;7.87;7.17;;;;;;;;;;5073475;28;20462;-64
2023/06/13 01:42:23;;;;;;;6.77;5.97;;;;;;;;;;5073420;28;20438;-62
2023/06/13 01:44:52;;;;;;;7.23;6.50;;;;;;;;;;5073579;28;20448;-63
2023/06/13 01:47:22;;;;;;;7.37;6.67;;;;;;;;;;5073684;28;20828;-62
2023/06/13 01:49:51;;;;;;;7.50;6.80;;;;;;;;;;5073634;28;20437;-63
2023/06/13 01:52:25;;;;;;;7.33;6.73;;;;;;;;;;5073612;28;20486;-63
2023/06/13 01:54:55;;;;;;;7.50;6.50;;;;;;;;;;5073541;28;20517;-64
2023/06/13 01:57:27;;;;;;;6.67;6.00;;;;;;;;;;5073660;28;20494;-62
2023/06/13 01:59:56;;;;;;;7.77;7.03;;;;;;;;;;5073702;28;20437;-63
2023/06/13 02:02:25;;;;;;;8.90;6.20;;;;;;;;;;5073549;28;20437;-63
2023/06/13 02:04:52;;;;;;;8.00;7.10;;;;;;;;;;5073687;28;20441;-63
2023/06/13 02:07:20;;;;;;;7.60;6.80;;;;;;;;;;5072939;28;20482;-63
2023/06/13 02:09:47;;;;;;;7.60;6.30;;;;;;;;;;5073927;28;20448;-63
2023/06/13 02:12:15;;;;;;;7.77;6.97;;;;;;;;;;5073348;28;20530;-63
2023/06/13 02:14:42;;;;;;;8.93;6.97;;;;;;;;;;5073663;28;20445;-62
2023/06/13 02:17:11;;;;;;;8.23;6.57;;;;;;;;;;5073379;28;20493;-63
2023/06/13 02:19:38;;;;;;;10.60;7.30;;;;;;;;;;5073622;28;20449;-63
2023/06/13 02:22:06;;;;;;;6.50;5.90;;;;;;;;;;5073387;28;20444;-62
2023/06/13 02:24:34;;;;;;;7.43;6.73;;;;;;;;;;5073365;28;20447;-63
2023/06/13 02:27:01;;;;;;;9.90;6.20;;;;;;;;;;5072811;28;20477;-63
2023/06/13 02:29:31;;;;;;;7.40;6.70;;;;;;;;;;5073183;28;20441;-63
2023/06/13 02:31:58;;;;;;;6.40;5.83;;;;;;;;;;5072645;28;20479;-63
2023/06/13 02:34:27;;;;;;;10.17;6.37;;;;;;;;;;5073885;28;20442;-63
2023/06/13 02:36:54;;;;;;;7.83;7.03;;;;;;;;;;5073337;28;20445;-63
2023/06/13 02:39:22;;;;;;;7.77;7.00;;;;;;;;;;5072822;28;20445;-63
2023/06/13 02:41:49;;;;;;;7.40;6.70;;;;;;;;;;5072703;28;20939;-63
2023/06/13 02:44:16;;;;;;;8.10;6.97;;;;;;;;;;5073053;28;20537;-63
2023/06/13 02:46:44;;;;;;;7.40;6.40;;;;;;;;;;5073099;28;20448;-62
2023/06/13 02:49:11;;;;;;;8.53;6.70;;;;;;;;;;5073311;28;20441;-62
2023/06/13 02:51:39;;;;;;;7.27;6.57;;;;;;;;;;5074755;28;20525;-63
2023/06/13 02:54:07;;;;;;;7.90;6.57;;;;;;;;;;5076627;28;20441;-62
2023/06/13 02:56:36;;;;;;;7.10;6.50;;;;;;;;;;5076786;28;20456;-62
2023/06/13 02:59:03;;;;;;;7.43;6.73;;;;;;;;;;5076522;28;20487;-62
2023/06/13 03:01:30;;;;;;;6.97;6.27;;;;;;;;;;5076578;28;20457;-62
2023/06/13 03:03:57;;;;;;;8.63;7.00;;;;;;;;;;5077092;28;20440;-62
2023/06/13 03:06:26;;;;;;;8.40;7.07;;;;;;;;;;5076797;28;20436;-63
2023/06/13 03:08:58;;;;;;;7.70;6.40;;;;;;;;;;5076881;28;20572;-63
2023/06/13 03:11:25;;;;;;;8.10;7.07;;;;;;;;;;5076249;28;20435;-63
2023/06/13 03:13:52;;;;;;;6.43;5.93;;;;;;;;;;5076567;28;20490;-63
2023/06/13 03:16:21;;;;;;;7.37;6.40;;;;;;;;;;5076634;28;20791;-63
2023/06/13 03:18:48;;;;;;;8.53;6.50;;;;;;;;;;5076432;28;20444;-63
2023/06/13 03:21:16;;;;;;;8.60;6.80;;;;;;;;;;5076389;28;20498;-62
2023/06/13 03:23:43;;;;;;;8.40;6.40;;;;;;;;;;5076471;28;20444;-63
2023/06/13 03:26:12;;;;;;;9.80;6.87;;;;;;;;;;5076385;28;20455;-64
2023/06/13 03:28:39;;;;;;;7.60;6.57;;;;;;;;;;5076690;28;20487;-63
2023/06/13 03:31:07;;;;;;;7.93;7.00;;;;;;;;;;5076371;28;20475;-64
2023/06/13 03:33:34;;;;;;;9.57;6.60;;;;;;;;;;5076942;28;20451;-64
2023/06/13 03:36:02;;;;;;;13.93;6.70;;;;;;;;;;5076442;28;20447;-64
2023/06/13 03:38:29;;;;;;;9.33;7.20;;;;;;;;;;5075474;28;20470;-65
2023/06/13 03:40:56;;;;;;;9.50;6.33;;;;;;;;;;5075979;28;20444;-64
2023/06/13 03:43:26;;;;;;;8.00;6.70;;;;;;;;;;5075956;28;20482;-64
2023/06/13 03:45:53;;;;;;;13.83;6.50;;;;;;;;;;5076074;28;20445;-62
2023/06/13 03:48:20;;;;;;;13.03;6.63;;;;;;;;;;5075883;28;20476;-62
2023/06/13 03:50:48;;;;;;;7.83;7.03;;;;;;;;;;5079441;28;20704;-64
2023/06/13 03:53:15;;;;;;;7.67;6.93;;;;;;;;;;5095713;28;20440;-65
2023/06/13 03:55:44;;;;;;;7.93;6.33;;;;;;;;;;5095688;28;20442;-64
2023/06/13 03:58:12;;;;;;;15.00;7.00;;;;;;;;;;5095854;28;20449;-64
2023/06/13 04:00:40;;;;;;;8.90;6.87;;;;;;;;;;5095990;28;20515;-64
2023/06/13 04:03:09;;;;;;;7.60;6.80;;;;;;;;;;5095306;28;20446;-64
2023/06/13 04:05:36;;;;;;;7.03;6.40;;;;;;;;;;5096015;28;20468;-64
2023/06/13 04:08:06;;;;;;;6.80;6.20;;;;;;;;;;5095503;28;20472;-65
2023/06/13 04:10:33;;;;;;;7.90;6.90;;;;;;;;;;5095490;28;20444;-65
2023/06/13 04:13:00;;;;;;;7.33;5.70;;;;;;;;;;5095259;28;20479;-62
2023/06/13 04:15:27;;;;;;;6.60;6.00;;;;;;;;;;5095411;28;20448;-63
2023/06/13 04:17:56;;;;;;;7.53;6.77;;;;;;;;;;5095664;28;20465;-64
2023/06/13 04:20:24;;;;;;;7.73;7.03;;;;;;;;;;5095017;28;20432;-63
2023/06/13 04:22:52;;;;;;;7.20;6.60;;;;;;;;;;5094921;28;20920;-64
2023/06/13 04:25:19;;;;;;;8.70;6.40;;;;;;;;;;5095062;28;20452;-65
2023/06/13 04:27:48;;;;;;;10.73;6.50;;;;;;;;;;5095219;28;20483;-62
2023/06/13 04:30:16;;;;;;;13.70;6.53;;;;;;;;;;5095037;28;20476;-63
2023/06/13 04:32:45;;;;;;;7.80;6.93;;;;;;;;;;5095131;28;20439;-62
2023/06/13 04:35:16;;;;;;;8.47;6.30;;;;;;;;;;5095262;28;20487;-65
2023/06/13 04:37:45;;;;;;;13.73;8.10;;;;;;;;;;5095323;28;20501;-63
2023/06/13 04:40:13;;;;;;;9.63;7.60;;;;;;;;;;5095073;28;20445;-61
2023/06/13 04:42:47;;;;;;;7.37;6.60;;;;;;;;;;5094875;28;20528;-61
2023/06/13 04:45:15;;;;;;;7.47;6.60;;;;;;;;;;5095000;28;20520;-61
2023/06/13 04:47:47;;;;;;;7.40;6.70;;;;;;;;;;5094710;28;20480;-61
2023/06/13 04:50:16;;;;;;;7.97;7.17;;;;;;;;;;5094702;28;20426;-61
2023/06/13 04:52:43;;;;;;;7.97;6.80;;;;;;;;;;5094673;28;20441;-61
2023/06/13 04:55:10;;;;;;;7.53;6.83;;;;;;;;;;5094794;28;20442;-63
2023/06/13 04:57:37;;;;;;;7.40;6.67;;;;;;;;;;5094561;28;20491;-61
2023/06/13 05:00:09;;;;;;;8.40;6.60;;;;;;;;;;5094487;28;20449;-61
2023/06/13 05:02:38;;;;;;;8.50;6.33;;;;;;;;;;5094193;28;20992;-61
2023/06/13 05:05:07;;;;;;;8.37;7.57;;;;;;;;;;5095000;28;20448;-61
2023/06/13 05:07:35;;;;;;;10.80;6.60;;;;;;;;;;5094796;28;20492;-60
2023/06/13 05:10:03;;;;;;;15.23;7.03;;;;;;;;;;5094417;28;20437;-61
2023/06/13 05:12:30;;;;;;;10.77;6.67;;;;;;;;;;5094262;28;20524;-63
2023/06/13 05:14:57;;;;;;;8.53;6.67;;;;;;;;;;5093799;28;20448;-63
2023/06/13 05:17:27;;;;;;;6.77;6.17;;;;;;;;;;5094250;28;20436;-63
2023/06/13 05:19:54;;;;;;;9.30;6.27;;;;;;;;;;5093907;28;20475;-62
2023/06/13 05:22:22;;;;;;;17.20;7.00;;;;;;;;;;5094123;28;20462;-61
2023/06/13 05:24:50;;;;;;;7.20;6.60;;;;;;;;;;5093766;28;20449;-61
2023/06/13 05:27:17;;;;;;;9.90;6.70;;;;;;;;;;5094184;28;20563;-61
2023/06/13 05:29:44;;;;;;;7.20;6.37;;;;;;;;;;5093649;28;20492;-61
2023/06/13 05:32:12;;;;;;;7.43;6.43;;;;;;;;;;5094105;28;20430;-61
2023/06/13 05:34:39;;;;;;;13.90;7.10;;;;;;;;;;5093999;28;20440;-61
2023/06/13 05:37:10;;;;;;;6.83;6.20;;;;;;;;;;5094220;28;20447;-61
2023/06/13 05:39:38;;;;;;;7.93;6.40;;;;;;;;;;5094063;28;20465;-61
2023/06/13 05:42:07;;;;;;;6.90;6.20;;;;;;;;;;5094012;28;20823;-62
2023/06/13 05:44:34;;;;;;;7.63;6.17;;;;;;;;;;5093842;28;20446;-62
2023/06/13 05:47:01;;;;;;;11.33;6.37;;;;;;;;;;5093627;28;20444;-62
2023/06/13 05:49:28;;;;;;;10.67;7.73;;;;;;;;;;5093947;28;20486;-61
2023/06/13 05:51:55;;;;;;;8.30;7.13;;;;;;;;;;5094466;28;20446;-61
2023/06/13 05:54:23;;;;;;;8.10;5.73;;;;;;;;;;5093984;28;20433;-61
2023/06/13 05:56:50;;;;;;;7.47;6.60;;;;;;;;;;5093698;28;20440;-61
2023/06/13 05:59:18;;;;;;;6.93;6.20;;;;;;;;;;5093660;28;20449;-61
2023/06/13 06:01:46;;;;;;;8.13;6.90;;;;;;;;;;5093862;28;20453;-61
2023/06/13 06:04:13;;;;;;;8.30;5.67;;;;;;;;;;5093327;28;20454;-61
2023/06/13 06:06:40;;;;;;;10.47;7.03;;;;;;;;;;5093236;28;20952;-62
2023/06/13 06:09:08;;;;;;;6.80;6.13;;;;;;;;;;5093744;28;20469;-61
2023/06/13 06:11:36;;;;;;;10.93;7.80;;;;;;;;;;5093646;28;20493;-61
2023/06/13 06:14:03;;;;;;;14.30;11.77;;;;;;;;;;5093828;28;20512;-62
2023/06/13 06:16:32;;;;;;;8.77;6.90;;;;;;;;;;5093921;28;20438;-61
2023/06/13 06:18:59;;;;;;;9.87;6.83;;;;;;;;;;5093015;28;20454;-62
2023/06/13 06:21:26;;;;;;;7.10;6.30;;;;;;;;;;5093425;28;20529;-61
2023/06/13 06:23:54;;;;;;;8.80;6.80;;;;;;;;;;5094117;28;20456;-62
2023/06/13 06:26:22;;;;;;;7.23;6.30;;;;;;;;;;5095192;28;20536;-62
2023/06/13 06:28:49;;;;;;;7.93;6.80;;;;;;;;;;5097154;28;20482;-62
2023/06/13 06:31:17;;;;;;;7.60;6.90;;;;;;;;;;5097380;28;20915;-62
2023/06/13 06:33:46;;;;;;;6.57;5.67;;;;;;;;;;5097120;28;20441;-62
2023/06/13 06:36:13;;;;;;;11.00;6.43;;;;;;;;;;5097839;28;20442;-62
2023/06/13 06:38:42;;;;;;;7.53;6.83;;;;;;;;;;5097394;28;20445;-62
2023/06/13 06:41:09;;;;;;;10.00;7.20;;;;;;;;;;5097463;28;20434;-62
2023/06/13 06:43:36;;;;;;;12.07;7.50;;;;;;;;;;5097316;28;20530;-62
2023/06/13 06:46:04;;;;;;;12.90;6.70;;;;;;;;;;5096919;28;20455;-61
2023/06/13 06:48:31;;;;;;;6.30;5.80;;;;;;;;;;5097557;28;20487;-61
2023/06/13 06:50:59;;;;;;;10.40;6.73;;;;;;;;;;5097204;28;20441;-61
2023/06/13 06:53:26;;;;;;;10.07;7.23;;;;;;;;;;5097378;28;20450;-63
2023/06/13 06:55:53;;;;;;;7.17;5.77;;;;;;;;;;5096998;28;20446;-62
2023/06/13 06:58:21;;;;;;;8.30;6.40;;;;;;;;;;5097376;28;20444;-62
2023/06/13 07:00:48;;;;;;;6.93;6.33;;;;;;;;;;5096606;28;20453;-62
2023/06/13 07:03:15;;;;;;;7.03;6.43;;;;;;;;;;5097120;28;20801;-62
2023/06/13 07:05:42;;;;;;;9.70;6.90;;;;;;;;;;5096859;28;20473;-62
2023/06/13 07:08:11;;;;;;;7.80;6.57;;;;;;;;;;5096921;28;20442;-61
2023/06/13 07:10:38;;;;;;;6.63;5.93;;;;;;;;;;5097094;28;20449;-61
2023/06/13 07:13:05;;;;;;;7.10;6.50;;;;;;;;;;5096781;28;20443;-61
2023/06/13 07:15:32;;;;;;;6.67;5.97;;;;;;;;;;5096970;28;20443;-61
2023/06/13 07:17:59;;;;;;;7.47;6.13;;;;;;;;;;5096828;28;20443;-61
2023/06/13 07:20:27;;;;;;;7.83;5.83;;;;;;;;;;5096833;28;20440;-61
2023/06/13 07:22:54;;;;;;;8.73;6.77;;;;;;;;;;5096672;28;20443;-61
2023/06/13 07:25:23;;;;;;;7.50;5.80;;;;;;;;;;5096661;28;20446;-62
2023/06/13 07:27:50;;;;;;;7.87;6.40;;;;;;;;;;5096546;28;20545;-61
2023/06/13 07:30:17;;;;;;;6.40;5.87;;;;;;;;;;5096031;28;20501;-61
2023/06/13 07:32:45;;;;;;;7.80;6.63;;;;;;;;;;5096975;28;20424;-61
2023/06/13 07:35:14;;;;;;;6.23;5.73;;;;;;;;;;5096331;28;20444;-61
2023/06/13 07:37:42;;;;;;;9.70;5.90;;;;;;;;;;5095822;28;20456;-61
2023/06/13 07:40:09;;;;;;;7.77;6.03;;;;;;;;;;5096181;28;20483;-61
2023/06/13 07:42:38;;;;;;;8.07;6.20;;;;;;;;;;5095941;28;20446;-61
2023/06/13 07:45:05;;;;;;;7.40;6.47;;;;;;;;;;5096326;28;20431;-61
2023/06/13 07:47:33;;;;;;;7.07;5.53;;;;;;;;;;5096685;28;20469;-61
2023/06/13 07:50:00;;;;;;;6.73;5.77;;;;;;;;;;5096218;28;20480;-61
2023/06/13 07:52:27;;;;;;;7.30;5.60;;;;;;;;;;5096064;28;20432;-61
2023/06/13 07:54:54;;;;;;;7.10;5.40;;;;;;;;;;5096140;28;20463;-62
2023/06/13 07:57:22;;;;;;;6.13;5.53;;;;;;;;;;5095958;28;20440;-61
2023/06/13 07:59:50;;;;;;;5.93;5.43;;;;;;;;;;5095629;28;20455;-62
2023/06/13 08:02:17;;;;;;;6.73;6.00;;;;;;;;;;5095593;28;20441;-61
2023/06/13 08:04:45;;;;;;;6.00;5.50;;;;;;;;;;5096105;28;20445;-61
2023/06/13 08:07:12;;;;;;;5.97;5.33;;;;;;;;;;5095721;28;20518;-62
2023/06/13 08:09:39;;;;;;;7.83;5.40;;;;;;;;;;5095935;28;20484;-62
2023/06/13 08:12:07;;;;;;;6.37;5.87;;;;;;;;;;5095559;28;20439;-62
2023/06/13 08:14:34;;;;;;;6.20;5.60;;;;;;;;;;5095361;28;20441;-61
2023/06/13 08:17:03;;;;;;;7.77;5.20;;;;;;;;;;5095197;28;20447;-62
2023/06/13 08:19:30;;;;;;;7.60;5.57;;;;;;;;;;5095553;28;20474;-62
2023/06/13 08:21:57;;;;;;;6.70;5.17;;;;;;;;;;5095396;28;20447;-62
2023/06/13 08:24:24;;;;;;;8.73;5.53;;;;;;;;;;5095511;28;20765;-61
2023/06/13 08:26:53;;;;;;;7.73;5.80;;;;;;;;;;5095440;28;20922;-61
2023/06/13 08:29:20;;;;;;;5.60;5.10;;;;;;;;;;5094955;28;20852;-61
2023/06/13 08:31:48;;;;;;;6.30;5.47;;;;;;;;;;5095107;28;20480;-61
2023/06/13 08:34:17;;;;;;;6.77;5.40;;;;;;;;;;5094759;28;20806;-61
2023/06/13 08:36:44;;;;;;;5.20;4.80;;;;;;;;;;5094755;28;20541;-61
2023/06/13 08:39:11;;;;;;;6.40;5.80;;;;;;;;;;5094847;28;20445;-61
2023/06/13 08:41:40;;;;;;;7.23;5.17;;;;;;;;;;5094848;28;20450;-61
2023/06/13 08:44:08;;;;;;;6.03;5.47;;;;;;;;;;5094704;28;20455;-61
2023/06/13 08:46:36;;;;;;;6.27;5.20;;;;;;;;;;5095104;28;20445;-61
2023/06/13 08:49:03;;;;;;;6.53;5.03;;;;;;;;;;5094051;28;20565;-61
2023/06/13 08:51:32;;;;;;;7.13;5.40;;;;;;;;;;5095004;28;20620;-61
2023/06/13 08:54:00;;;;;;;5.83;5.17;;;;;;;;;;5094808;28;20445;-62
2023/06/13 08:56:29;;;;;;;7.07;5.93;;;;;;;;;;5094668;28;20498;-61
2023/06/13 08:58:58;;;;;;;7.30;5.63;;;;;;;;;;5094672;28;20491;-61
2023/06/13 09:01:27;;;;;;;9.30;5.53;;;;;;;;;;5094211;28;20905;-61
2023/06/13 09:03:55;;;;;;;11.97;5.53;;;;;;;;;;5094644;28;20771;-61
2023/06/13 09:06:23;;;;;;;7.23;5.00;;;;;;;;;;5095589;28;20439;-61
2023/06/13 09:08:52;;;;;;;6.33;5.03;;;;;;;;;;5095130;28;20832;-61
2023/06/13 09:11:20;;;;;;;5.57;5.07;;;;;;;;;;5094046;28;20446;-61
2023/06/13 09:13:48;;;;;;;7.47;4.77;;;;;;;;;;5094448;28;20525;-61
2023/06/13 09:16:15;;;;;;;5.80;5.23;;;;;;;;;;5094296;28;20541;-61
2023/06/13 09:18:43;;;;;;;7.40;4.80;;;;;;;;;;5094010;28;20446;-61
2023/06/13 09:21:10;;;;;;;5.30;4.73;;;;;;;;;;5094153;28;20455;-62
2023/06/13 09:23:37;;;;;;;6.17;5.67;;;;;;;;;;5094299;28;20873;-61
2023/06/13 09:26:07;;;;;;;5.53;5.00;;;;;;;;;;5093741;28;20450;-62
2023/06/13 09:28:34;;;;;;;5.90;4.93;;;;;;;;;;5093876;28;20444;-61
2023/06/13 09:31:02;;;;;;;7.60;5.30;;;;;;;;;;5094207;28;20494;-62
2023/06/13 09:33:29;;;;;;;6.60;5.70;;;;;;;;;;5094057;28;20446;-61
2023/06/13 09:35:56;;;;;;;6.90;5.37;;;;;;;;;;5093929;28;20837;-61
2023/06/13 09:38:27;;;;;;;6.47;5.87;;;;;;;;;;5093554;28;20438;-61
2023/06/13 09:40:55;;;;;;;5.80;5.20;;;;;;;;;;5093477;28;20427;-61
2023/06/13 09:43:24;;;;;;;5.93;5.33;;;;;;;;;;5093762;28;20449;-61
2023/06/13 09:45:52;;;;;;;5.60;5.10;;;;;;;;;;5094121;28;20444;-62
2023/06/13 09:48:19;;;;;;;9.40;5.53;;;;;;;;;;5093797;28;20446;-62
2023/06/13 09:50:46;;;;;;;5.30;4.80;;;;;;;;;;5093905;28;20553;-62
2023/06/13 09:53:13;;;;;;;13.47;7.03;;;;;;;;;;5093723;28;20453;-62
2023/06/13 09:55:41;;;;;;;5.67;5.17;;;;;;;;;;5093451;28;20461;-62
2023/06/13 09:58:08;;;;;;;9.80;6.30;;;;;;;;;;5093310;28;20931;-62
2023/06/13 10:00:37;;;;;;;6.60;5.57;;;;;;;;;;5093734;28;20466;-62
2023/06/13 10:03:05;;;;;;;8.40;5.87;;;;;;;;;;5093584;28;20420;-62
2023/06/13 10:05:32;;;;;;;6.90;6.07;;;;;;;;;;5093605;28;20445;-62
2023/06/13 10:07:59;;;;;;;10.63;7.90;;;;;;;;;;5093420;28;20465;-62
2023/06/13 10:10:27;;;;;;;7.63;5.43;;;;;;;;;;5093157;28;20479;-62
2023/06/13 10:12:58;;;;;;;8.20;6.43;;;;;;;;;;5093296;28;20450;-62
2023/06/13 10:15:28;;;;;;;7.10;5.90;;;;;;;;;;5093047;28;20424;-62
2023/06/13 10:17:58;;;;;;;10.13;5.40;;;;;;;;;;5093479;28;20435;-62
2023/06/13 10:20:31;;;;;;;5.50;5.10;;;;;;;;;;5093321;28;20446;-62
2023/06/13 10:22:58;;;;;;;6.77;6.07;;;;;;;;;;5093360;28;20493;-62
2023/06/13 10:25:28;;;;;;;5.20;4.70;;;;;;;;;;5093363;28;20789;-62
2023/06/13 10:27:57;;;;;;;6.57;5.93;;;;;;;;;;5092874;28;20440;-62
2023/06/13 10:30:33;;;;;;;8.90;5.73;;;;;;;;;;5092712;28;20491;-62
2023/06/13 10:33:17;;;;;;;5.60;5.20;;;;;;;;;;5093133;28;20906;-62
2023/06/13 10:36:05;;;;;;;6.33;5.70;;;;;;;;;;5093385;28;20403;-62
2023/06/13 10:38:57;;;;;;;8.20;6.73;;;;;;;;;;5088574;28;20519;-62
2023/06/13 10:41:35;;;;;;;14.60;7.00;;;;;;;;;;5093876;28;20468;-62
2023/06/13 10:44:05;;;;;;;6.13;5.60;;;;;;;;;;5093209;28;20478;-62
2023/06/13 10:46:34;;;;;;;6.60;6.00;;;;;;;;;;5093743;28;20442;-62
2023/06/13 10:49:03;;;;;;;10.90;9.33;;;;;;;;;;5093162;28;20432;-62
2023/06/13 10:51:31;;;;;;;6.77;5.30;;;;;;;;;;5092752;28;20587;-63
2023/06/13 10:53:59;;;;;;;8.67;5.60;;;;;;;;;;5092785;28;20418;-62
2023/06/13 10:56:31;;;;;;;6.40;5.77;;;;;;;;;;5093171;28;20765;-63
2023/06/13 10:59:08;;;;;;;6.53;5.93;;;;;;;;;;5093253;28;20438;-62
2023/06/13 11:01:36;;;;;;;7.63;6.83;;;;;;;;;;5092872;28;20432;-62
2023/06/13 11:04:11;;;;;;;9.60;6.60;;;;;;;;;;5093190;28;20417;-62
2023/06/13 11:06:38;;;;;;;7.57;6.73;;;;;;;;;;5093108;28;20451;-62
2023/06/13 11:09:09;;;;;;;6.93;5.57;;;;;;;;;;5092945;28;20419;-62
2023/06/13 11:11:40;;;;;;;5.73;5.13;;;;;;;;;;5093711;28;20446;-62
2023/06/13 11:14:08;;;;;;;7.30;5.70;;;;;;;;;;5096887;28;20437;-62
2023/06/13 11:16:39;;;;;;;6.40;5.80;;;;;;;;;;5096625;28;20414;-62
2023/06/13 11:19:07;;;;;;;5.13;4.30;;;;;;;;;;5096126;28;20412;-62
2023/06/13 11:21:41;;;;;;;6.13;5.40;;;;;;;;;;5096321;28;20489;-62
2023/06/13 11:24:08;;;;;;;7.63;5.57;;;;;;;;;;5096225;28;20408;-62
2023/06/13 11:26:36;;;;;;;6.40;5.77;;;;;;;;;;5096224;28;20507;-62
2023/06/13 11:29:04;;;;;;;6.77;5.53;;;;;;;;;;5096640;28;20757;-62
2023/06/13 11:31:36;;;;;;;6.37;5.63;;;;;;;;;;5096797;28;20583;-62
2023/06/13 11:34:04;;;;;;;6.50;5.90;;;;;;;;;;5096106;28;20900;-62
2023/06/13 11:36:33;;;;;;;8.30;6.67;;;;;;;;;;5096126;28;20419;-62
2023/06/13 11:39:04;;;;;;;7.43;5.70;;;;;;;;;;5096393;28;20511;-62
2023/06/13 11:41:32;;;;;;;9.50;7.50;;;;;;;;;;5096207;28;20493;-62
2023/06/13 11:44:00;;;;;;;7.70;6.90;;;;;;;;;;5095885;28;20465;-62
2023/06/13 11:46:27;;;;;;;8.10;5.97;;;;;;;;;;5095900;28;20411;-62
2023/06/13 11:48:57;;;;;;;6.10;5.30;;;;;;;;;;5096027;28;20418;-62
2023/06/13 11:51:24;;;;;;;5.50;5.10;;;;;;;;;;5096333;28;20483;-62
2023/06/13 11:53:53;;;;;;;6.00;5.30;;;;;;;;;;5095709;28;20419;-62
2023/06/13 11:56:22;;;;;;;6.10;5.50;;;;;;;;;;5095816;28;20420;-62
2023/06/13 11:58:49;;;;;;;6.47;5.50;;;;;;;;;;5095966;28;20461;-62
2023/06/13 12:01:18;;;;;;;6.13;5.40;;;;;;;;;;5096562;28;20786;-62
2023/06/13 12:03:45;;;;;;;7.40;6.10;;;;;;;;;;5095895;28;20415;-62
2023/06/13 12:06:13;;;;;;;6.50;5.67;;;;;;;;;;5095872;28;20460;-62
2023/06/13 12:08:41;;;;;;;8.33;5.53;;;;;;;;;;5096223;28;20419;-62
2023/06/13 12:11:11;;;;;;;5.93;5.00;;;;;;;;;;5095966;28;20447;-62
2023/06/13 12:13:40;;;;;;;6.20;5.50;;;;;;;;;;5095650;28;20419;-62
2023/06/13 12:16:08;;;;;;;6.30;5.67;;;;;;;;;;5095101;28;20443;-67
2023/06/13 12:18:35;;;;;;;6.90;6.20;;;;;;;;;;5095263;28;20483;-62
2023/06/13 12:21:02;;;;;;;6.43;5.80;;;;;;;;;;5095562;28;20443;-61
2023/06/13 12:23:30;;;;;;;8.30;5.77;;;;;;;;;;5094203;28;20446;-62
2023/06/13 12:25:59;;;;;;;6.03;5.47;;;;;;;;;;5095161;28;20479;-62
2023/06/13 12:28:28;;;;;;;6.20;5.70;;;;;;;;;;5095256;28;20428;-62
2023/06/13 12:30:57;;;;;;;10.37;6.70;;;;;;;;;;5095038;28;20467;-62
2023/06/13 12:33:33;;;;;;;10.70;6.17;;;;;;;;;;5095254;28;20420;-61
2023/06/13 12:36:02;;;;;;;10.13;5.47;;;;;;;;;;5095217;28;20937;-61
2023/06/13 12:38:31;;;;;;;7.10;6.50;;;;;;;;;;5091323;28;20506;-61
2023/06/13 12:40:58;;;;;;;10.03;6.00;;;;;;;;;;5089798;28;20450;-61
2023/06/13 12:43:25;;;;;;;7.07;6.57;;;;;;;;;;5094724;28;20457;-61
2023/06/13 12:45:53;;;;;;;8.80;5.93;;;;;;;;;;5094803;28;20460;-61
2023/06/13 12:48:22;;;;;;;6.33;5.73;;;;;;;;;;5094877;28;20845;-61
2023/06/13 12:50:49;;;;;;;5.97;5.37;;;;;;;;;;5094252;28;20976;-61
2023/06/13 12:53:19;;;;;;;8.53;5.33;;;;;;;;;;5094758;28;20438;-62
2023/06/13 12:55:48;;;;;;;7.50;6.00;;;;;;;;;;5094809;28;20423;-61
2023/06/13 12:58:39;;;;;;;7.57;5.40;;;;;;;;;;5094516;28;20798;-61
2023/06/13 13:01:07;;;;;;;6.40;5.90;;;;;;;;;;5078844;28;20456;-61
2023/06/13 13:03:36;;;;;;;8.87;6.40;;;;;;;;;;5093997;28;20461;-61
2023/06/13 13:06:04;;;;;;;6.30;5.80;;;;;;;;;;5094456;28;20451;-61
2023/06/13 13:08:31;;;;;;;6.13;5.37;;;;;;;;;;5094292;28;20949;-61
2023/06/13 13:10:59;;;;;;;7.50;5.90;;;;;;;;;;5094122;28;20475;-61
2023/06/13 13:13:26;;;;;;;7.17;6.47;;;;;;;;;;5094353;28;20446;-61
2023/06/13 13:15:53;;;;;;;7.10;5.90;;;;;;;;;;5094204;28;20425;-61
2023/06/13 13:18:20;;;;;;;6.70;6.00;;;;;;;;;;5093986;28;20442;-61
2023/06/13 13:20:49;;;;;;;6.77;6.20;;;;;;;;;;5093839;28;20454;-61
2023/06/13 13:23:16;;;;;;;9.30;6.00;;;;;;;;;;5094139;28;20439;-61
2023/06/13 13:25:44;;;;;;;6.90;6.20;;;;;;;;;;5093778;28;20455;-61
2023/06/13 13:28:11;;;;;;;8.00;5.70;;;;;;;;;;5093731;28;20446;-61
2023/06/13 13:30:39;;;;;;;10.77;6.00;;;;;;;;;;5093845;28;20489;-61
2023/06/13 13:33:06;;;;;;;8.23;6.80;;;;;;;;;;5093918;28;20443;-61
2023/06/13 13:35:34;;;;;;;7.07;5.80;;;;;;;;;;5093176;28;20435;-63
2023/06/13 13:38:02;;;;;;;7.10;6.50;;;;;;;;;;5093483;28;20975;-61
2023/06/13 13:40:30;;;;;;;7.93;6.17;;;;;;;;;;5093180;28;20520;-61
2023/06/13 13:42:57;;;;;;;5.93;5.43;;;;;;;;;;5093794;28;20454;-61
2023/06/13 13:45:24;;;;;;;8.93;6.10;;;;;;;;;;5093497;28;20590;-61
2023/06/13 13:47:53;;;;;;;5.80;5.20;;;;;;;;;;5093611;28;20449;-61
2023/06/13 13:50:20;;;;;;;8.87;6.37;;;;;;;;;;5093038;28;20454;-60
2023/06/13 13:52:49;;;;;;;6.30;5.70;;;;;;;;;;5093467;28;20456;-61
2023/06/13 13:55:17;;;;;;;6.43;5.93;;;;;;;;;;5093038;28;20450;-61
2023/06/13 13:57:45;;;;;;;7.30;5.40;;;;;;;;;;5093425;28;20870;-60
2023/06/13 14:00:13;;;;;;;6.00;5.20;;;;;;;;;;5093040;28;20919;-61
2023/06/13 14:02:40;;;;;;;6.53;5.93;;;;;;;;;;5093280;28;20487;-61
2023/06/13 14:05:07;;;;;;;6.50;5.90;;;;;;;;;;5093219;28;20444;-64
2023/06/13 14:07:34;;;;;;;7.87;5.83;;;;;;;;;;5093222;28;20449;-62
2023/06/13 14:10:01;;;;;;;10.43;5.37;;;;;;;;;;5093093;28;20440;-62
2023/06/13 14:12:30;;;;;;;13.10;6.40;;;;;;;;;;5093310;28;20496;-61
2023/06/13 14:14:57;;;;;;;6.77;6.03;;;;;;;;;;5093168;28;20497;-61
2023/06/13 14:17:24;;;;;;;6.90;6.20;;;;;;;;;;5093132;28;20523;-62
2023/06/13 14:19:52;;;;;;;6.53;5.87;;;;;;;;;;5092874;28;20520;-62
2023/06/13 14:22:19;;;;;;;6.50;6.00;;;;;;;;;;5092924;28;20954;-62
2023/06/13 14:24:46;;;;;;;6.20;5.60;;;;;;;;;;5093111;28;20443;-62
2023/06/13 14:27:14;;;;;;;6.50;5.90;;;;;;;;;;5092719;28;20453;-62
2023/06/13 14:29:42;;;;;;;7.13;6.20;;;;;;;;;;5092550;28;20447;-62
2023/06/13 14:32:10;;;;;;;6.67;6.07;;;;;;;;;;5092641;28;20472;-62
2023/06/13 14:34:37;;;;;;;6.43;5.83;;;;;;;;;;5092624;28;20957;-61
2023/06/13 14:37:04;;;;;;;7.40;5.70;;;;;;;;;;5092775;28;20439;-61
2023/06/13 14:39:37;;;;;;;9.77;6.37;;;;;;;;;;5092455;28;20948;-61
2023/06/13 14:42:05;;;;;;;6.67;6.17;;;;;;;;;;5092818;28;20417;-62
2023/06/13 14:44:32;;;;;;;10.53;5.97;;;;;;;;;;5092922;28;20445;-62
2023/06/13 14:47:01;;;;;;;7.50;5.50;;;;;;;;;;5093878;28;20447;-62